sensor_id;sensor_type;location;lat;lon;timestamp;P1;durP1;ratioP1;P2;durP2;ratioP2
57635;SDS011;43465;50.728;4.160;2023-03-12T00:02:09;11.52;;;5.75;;
57635;SDS011;43465;50.728;4.160;2023-03-12T00:04:34;9.30;;;5.43;;
57635;SDS011;43465;50.728;4.160;2023-03-12T00:07:01;9.63;;;5.45;;
57635;SDS011;43465;50.728;4.160;2023-03-12T00:09:27;7.03;;;4.03;;
57635;SDS011;43465;50.728;4.160;2023-03-12T00:11:53;11.90;;;4.68;;
57635;SDS011;43465;50.728;4.160;2023-03-12T00:14:19;5.82;;;2.92;;
57635;SDS011;43465;50.728;4.160;2023-03-12T00:16:44;7.50;;;2.92;;
57635;SDS011;43465;50.728;4.160;2023-03-12T00:19:11;7.57;;;2.88;;
57635;SDS011;43465;50.728;4.160;2023-03-12T00:21:37;7.68;;;2.80;;
57635;SDS011;43465;50.728;4.160;2023-03-12T00:24:03;5.35;;;3.00;;
57635;SDS011;43465;50.728;4.160;2023-03-12T00:26:29;6.40;;;2.72;;
57635;SDS011;43465;50.728;4.160;2023-03-12T00:28:55;7.40;;;3.00;;
57635;SDS011;43465;50.728;4.160;2023-03-12T00:31:22;5.65;;;2.90;;
57635;SDS011;43465;50.728;4.160;2023-03-12T00:33:51;5.65;;;2.95;;
57635;SDS011;43465;50.728;4.160;2023-03-12T00:36:19;13.38;;;3.28;;
57635;SDS011;43465;50.728;4.160;2023-03-12T00:38:48;8.82;;;3.25;;
57635;SDS011;43465;50.728;4.160;2023-03-12T00:41:14;6.88;;;2.65;;
57635;SDS011;43465;50.728;4.160;2023-03-12T00:43:40;8.00;;;2.80;;
57635;SDS011;43465;50.728;4.160;2023-03-12T00:46:06;8.48;;;3.63;;
57635;SDS011;43465;50.728;4.160;2023-03-12T00:48:31;5.18;;;3.00;;
57635;SDS011;43465;50.728;4.160;2023-03-12T00:50:57;5.53;;;3.08;;
57635;SDS011;43465;50.728;4.160;2023-03-12T00:53:23;9.00;;;3.05;;
57635;SDS011;43465;50.728;4.160;2023-03-12T00:55:48;5.55;;;3.03;;
57635;SDS011;43465;50.728;4.160;2023-03-12T00:58:14;5.45;;;3.33;;
57635;SDS011;43465;50.728;4.160;2023-03-12T01:00:40;6.38;;;3.40;;
57635;SDS011;43465;50.728;4.160;2023-03-12T01:03:05;8.32;;;3.30;;
57635;SDS011;43465;50.728;4.160;2023-03-12T01:05:31;7.47;;;3.33;;
57635;SDS011;43465;50.728;4.160;2023-03-12T01:08:01;9.27;;;3.15;;
57635;SDS011;43465;50.728;4.160;2023-03-12T01:10:31;6.55;;;2.80;;
57635;SDS011;43465;50.728;4.160;2023-03-12T01:12:56;8.93;;;3.28;;
57635;SDS011;43465;50.728;4.160;2023-03-12T01:15:22;7.95;;;3.35;;
57635;SDS011;43465;50.728;4.160;2023-03-12T01:17:49;8.57;;;3.30;;
57635;SDS011;43465;50.728;4.160;2023-03-12T01:20:15;5.30;;;3.55;;
57635;SDS011;43465;50.728;4.160;2023-03-12T01:22:41;5.57;;;3.33;;
57635;SDS011;43465;50.728;4.160;2023-03-12T01:25:08;11.27;;;3.42;;
57635;SDS011;43465;50.728;4.160;2023-03-12T01:27:34;5.25;;;3.00;;
57635;SDS011;43465;50.728;4.160;2023-03-12T01:30:00;7.18;;;3.17;;
57635;SDS011;43465;50.728;4.160;2023-03-12T01:32:26;6.65;;;3.28;;
57635;SDS011;43465;50.728;4.160;2023-03-12T01:34:51;4.53;;;3.20;;
57635;SDS011;43465;50.728;4.160;2023-03-12T01:37:17;6.30;;;3.00;;
57635;SDS011;43465;50.728;4.160;2023-03-12T01:39:42;7.07;;;3.20;;
57635;SDS011;43465;50.728;4.160;2023-03-12T01:42:08;6.38;;;3.70;;
57635;SDS011;43465;50.728;4.160;2023-03-12T01:44:47;7.38;;;3.85;;
57635;SDS011;43465;50.728;4.160;2023-03-12T01:47:24;7.32;;;3.40;;
57635;SDS011;43465;50.728;4.160;2023-03-12T01:49:51;9.32;;;3.70;;
57635;SDS011;43465;50.728;4.160;2023-03-12T01:52:32;9.57;;;3.30;;
57635;SDS011;43465;50.728;4.160;2023-03-12T01:55:10;6.82;;;3.22;;
57635;SDS011;43465;50.728;4.160;2023-03-12T01:57:47;5.47;;;3.40;;
57635;SDS011;43465;50.728;4.160;2023-03-12T02:00:19;5.80;;;3.33;;
57635;SDS011;43465;50.728;4.160;2023-03-12T02:02:46;4.22;;;3.10;;
57635;SDS011;43465;50.728;4.160;2023-03-12T02:07:54;10.65;;;3.70;;
57635;SDS011;43465;50.728;4.160;2023-03-12T02:10:21;7.63;;;3.65;;
57635;SDS011;43465;50.728;4.160;2023-03-12T02:12:47;8.35;;;3.80;;
57635;SDS011;43465;50.728;4.160;2023-03-12T02:15:13;7.85;;;3.17;;
57635;SDS011;43465;50.728;4.160;2023-03-12T02:17:39;6.72;;;3.10;;
57635;SDS011;43465;50.728;4.160;2023-03-12T02:22:38;9.80;;;3.22;;
57635;SDS011;43465;50.728;4.160;2023-03-12T02:28:04;6.95;;;3.50;;
57635;SDS011;43465;50.728;4.160;2023-03-12T02:30:32;6.97;;;3.00;;
57635;SDS011;43465;50.728;4.160;2023-03-12T02:33:00;9.90;;;3.33;;
57635;SDS011;43465;50.728;4.160;2023-03-12T02:35:29;12.70;;;3.42;;
57635;SDS011;43465;50.728;4.160;2023-03-12T02:37:55;6.82;;;3.50;;
57635;SDS011;43465;50.728;4.160;2023-03-12T02:43:02;6.72;;;3.20;;
57635;SDS011;43465;50.728;4.160;2023-03-12T02:45:30;11.50;;;3.70;;
57635;SDS011;43465;50.728;4.160;2023-03-12T02:47:58;7.90;;;3.65;;
57635;SDS011;43465;50.728;4.160;2023-03-12T02:50:23;7.35;;;3.55;;
57635;SDS011;43465;50.728;4.160;2023-03-12T02:52:49;8.38;;;3.88;;
57635;SDS011;43465;50.728;4.160;2023-03-12T02:55:15;8.65;;;3.65;;
57635;SDS011;43465;50.728;4.160;2023-03-12T02:57:41;11.80;;;3.95;;
57635;SDS011;43465;50.728;4.160;2023-03-12T03:00:08;8.32;;;3.75;;
57635;SDS011;43465;50.728;4.160;2023-03-12T03:02:37;7.43;;;3.42;;
57635;SDS011;43465;50.728;4.160;2023-03-12T03:05:03;8.70;;;4.10;;
57635;SDS011;43465;50.728;4.160;2023-03-12T03:07:29;6.13;;;3.60;;
57635;SDS011;43465;50.728;4.160;2023-03-12T03:09:55;5.22;;;3.80;;
57635;SDS011;43465;50.728;4.160;2023-03-12T03:12:20;7.15;;;4.15;;
57635;SDS011;43465;50.728;4.160;2023-03-12T03:14:47;10.13;;;4.25;;
57635;SDS011;43465;50.728;4.160;2023-03-12T03:17:13;7.97;;;4.05;;
57635;SDS011;43465;50.728;4.160;2023-03-12T03:19:39;8.20;;;4.25;;
57635;SDS011;43465;50.728;4.160;2023-03-12T03:22:04;8.15;;;4.28;;
57635;SDS011;43465;50.728;4.160;2023-03-12T03:24:30;9.18;;;3.80;;
57635;SDS011;43465;50.728;4.160;2023-03-12T03:26:56;12.45;;;4.25;;
57635;SDS011;43465;50.728;4.160;2023-03-12T03:29:21;11.10;;;4.28;;
57635;SDS011;43465;50.728;4.160;2023-03-12T03:31:47;8.93;;;4.05;;
57635;SDS011;43465;50.728;4.160;2023-03-12T03:34:13;7.63;;;4.47;;
57635;SDS011;43465;50.728;4.160;2023-03-12T03:36:38;7.03;;;4.28;;
57635;SDS011;43465;50.728;4.160;2023-03-12T03:39:04;15.30;;;4.90;;
57635;SDS011;43465;50.728;4.160;2023-03-12T03:41:30;9.55;;;4.97;;
57635;SDS011;43465;50.728;4.160;2023-03-12T03:43:57;7.18;;;4.53;;
57635;SDS011;43465;50.728;4.160;2023-03-12T03:46:23;10.02;;;4.82;;
57635;SDS011;43465;50.728;4.160;2023-03-12T03:48:49;9.95;;;5.25;;
57635;SDS011;43465;50.728;4.160;2023-03-12T03:51:15;10.70;;;5.20;;
57635;SDS011;43465;50.728;4.160;2023-03-12T03:53:41;13.30;;;5.43;;
57635;SDS011;43465;50.728;4.160;2023-03-12T03:56:08;10.55;;;5.50;;
57635;SDS011;43465;50.728;4.160;2023-03-12T03:58:35;12.27;;;5.85;;
57635;SDS011;43465;50.728;4.160;2023-03-12T04:01:01;10.80;;;5.78;;
57635;SDS011;43465;50.728;4.160;2023-03-12T04:03:27;10.68;;;5.90;;
57635;SDS011;43465;50.728;4.160;2023-03-12T04:05:54;12.27;;;6.22;;
57635;SDS011;43465;50.728;4.160;2023-03-12T04:08:21;12.90;;;5.78;;
57635;SDS011;43465;50.728;4.160;2023-03-12T04:10:47;10.63;;;6.28;;
57635;SDS011;43465;50.728;4.160;2023-03-12T04:13:12;12.57;;;6.07;;
57635;SDS011;43465;50.728;4.160;2023-03-12T04:15:39;13.65;;;7.57;;
57635;SDS011;43465;50.728;4.160;2023-03-12T04:18:14;12.75;;;7.13;;
57635;SDS011;43465;50.728;4.160;2023-03-12T04:20:40;12.73;;;7.47;;
57635;SDS011;43465;50.728;4.160;2023-03-12T04:23:05;12.05;;;7.72;;
57635;SDS011;43465;50.728;4.160;2023-03-12T04:25:31;13.75;;;7.32;;
57635;SDS011;43465;50.728;4.160;2023-03-12T04:27:57;11.55;;;7.72;;
57635;SDS011;43465;50.728;4.160;2023-03-12T04:30:23;12.50;;;7.88;;
57635;SDS011;43465;50.728;4.160;2023-03-12T04:32:48;13.65;;;8.07;;
57635;SDS011;43465;50.728;4.160;2023-03-12T04:35:14;17.48;;;8.93;;
57635;SDS011;43465;50.728;4.160;2023-03-12T04:37:40;12.80;;;8.48;;
57635;SDS011;43465;50.728;4.160;2023-03-12T04:40:05;13.32;;;8.25;;
57635;SDS011;43465;50.728;4.160;2023-03-12T04:42:34;12.48;;;8.82;;
57635;SDS011;43465;50.728;4.160;2023-03-12T04:44:59;15.10;;;9.77;;
57635;SDS011;43465;50.728;4.160;2023-03-12T04:47:25;13.32;;;9.02;;
57635;SDS011;43465;50.728;4.160;2023-03-12T04:49:51;14.10;;;8.98;;
57635;SDS011;43465;50.728;4.160;2023-03-12T04:52:17;11.75;;;9.40;;
57635;SDS011;43465;50.728;4.160;2023-03-12T04:54:43;14.77;;;10.35;;
57635;SDS011;43465;50.728;4.160;2023-03-12T04:57:09;15.95;;;10.70;;
57635;SDS011;43465;50.728;4.160;2023-03-12T04:59:34;14.95;;;10.00;;
57635;SDS011;43465;50.728;4.160;2023-03-12T05:02:00;14.63;;;10.48;;
57635;SDS011;43465;50.728;4.160;2023-03-12T05:04:26;15.82;;;10.52;;
57635;SDS011;43465;50.728;4.160;2023-03-12T05:06:51;16.67;;;11.05;;
57635;SDS011;43465;50.728;4.160;2023-03-12T05:09:17;17.33;;;11.43;;
57635;SDS011;43465;50.728;4.160;2023-03-12T05:11:43;16.00;;;11.00;;
57635;SDS011;43465;50.728;4.160;2023-03-12T05:14:10;17.67;;;12.27;;
57635;SDS011;43465;50.728;4.160;2023-03-12T05:16:36;19.27;;;12.02;;
57635;SDS011;43465;50.728;4.160;2023-03-12T05:19:02;17.17;;;13.02;;
57635;SDS011;43465;50.728;4.160;2023-03-12T05:21:28;17.30;;;12.80;;
57635;SDS011;43465;50.728;4.160;2023-03-12T05:23:54;20.67;;;13.07;;
57635;SDS011;43465;50.728;4.160;2023-03-12T05:26:21;19.98;;;13.23;;
57635;SDS011;43465;50.728;4.160;2023-03-12T05:28:49;19.80;;;13.77;;
57635;SDS011;43465;50.728;4.160;2023-03-12T05:31:16;21.25;;;13.68;;
57635;SDS011;43465;50.728;4.160;2023-03-12T05:33:42;22.10;;;14.35;;
57635;SDS011;43465;50.728;4.160;2023-03-12T05:36:08;24.67;;;14.38;;
57635;SDS011;43465;50.728;4.160;2023-03-12T05:38:35;24.20;;;15.13;;
57635;SDS011;43465;50.728;4.160;2023-03-12T05:41:01;22.25;;;15.43;;
57635;SDS011;43465;50.728;4.160;2023-03-12T05:43:27;24.95;;;16.52;;
57635;SDS011;43465;50.728;4.160;2023-03-12T05:45:57;22.75;;;16.50;;
57635;SDS011;43465;50.728;4.160;2023-03-12T05:48:24;21.27;;;15.38;;
57635;SDS011;43465;50.728;4.160;2023-03-12T05:50:50;23.45;;;16.00;;
57635;SDS011;43465;50.728;4.160;2023-03-12T05:53:16;26.00;;;16.92;;
57635;SDS011;43465;50.728;4.160;2023-03-12T05:55:42;24.10;;;16.50;;
57635;SDS011;43465;50.728;4.160;2023-03-12T05:58:08;22.38;;;16.90;;
57635;SDS011;43465;50.728;4.160;2023-03-12T06:00:33;23.15;;;16.83;;
57635;SDS011;43465;50.728;4.160;2023-03-12T06:03:03;29.65;;;18.65;;
57635;SDS011;43465;50.728;4.160;2023-03-12T06:05:29;28.38;;;18.52;;
57635;SDS011;43465;50.728;4.160;2023-03-12T06:07:56;29.48;;;18.67;;
57635;SDS011;43465;50.728;4.160;2023-03-12T06:10:22;29.17;;;18.13;;
57635;SDS011;43465;50.728;4.160;2023-03-12T06:12:48;29.23;;;18.65;;
57635;SDS011;43465;50.728;4.160;2023-03-12T06:15:14;28.33;;;19.88;;
57635;SDS011;43465;50.728;4.160;2023-03-12T06:17:39;30.90;;;19.77;;
57635;SDS011;43465;50.728;4.160;2023-03-12T06:20:05;28.20;;;18.75;;
57635;SDS011;43465;50.728;4.160;2023-03-12T06:22:32;27.30;;;19.30;;
57635;SDS011;43465;50.728;4.160;2023-03-12T06:24:58;33.78;;;21.58;;
57635;SDS011;43465;50.728;4.160;2023-03-12T06:27:24;31.42;;;20.08;;
57635;SDS011;43465;50.728;4.160;2023-03-12T06:29:49;32.95;;;20.85;;
57635;SDS011;43465;50.728;4.160;2023-03-12T06:32:15;39.40;;;22.75;;
57635;SDS011;43465;50.728;4.160;2023-03-12T06:34:42;33.15;;;21.70;;
57635;SDS011;43465;50.728;4.160;2023-03-12T06:37:08;33.90;;;21.23;;
57635;SDS011;43465;50.728;4.160;2023-03-12T06:39:34;36.70;;;21.33;;
57635;SDS011;43465;50.728;4.160;2023-03-12T06:41:59;38.53;;;21.70;;
57635;SDS011;43465;50.728;4.160;2023-03-12T06:44:25;34.70;;;21.83;;
57635;SDS011;43465;50.728;4.160;2023-03-12T06:46:54;36.50;;;21.45;;
57635;SDS011;43465;50.728;4.160;2023-03-12T06:49:19;46.33;;;22.50;;
57635;SDS011;43465;50.728;4.160;2023-03-12T06:51:45;38.88;;;22.70;;
57635;SDS011;43465;50.728;4.160;2023-03-12T06:54:11;38.03;;;22.65;;
57635;SDS011;43465;50.728;4.160;2023-03-12T06:56:36;40.65;;;22.17;;
57635;SDS011;43465;50.728;4.160;2023-03-12T06:59:02;39.80;;;21.88;;
57635;SDS011;43465;50.728;4.160;2023-03-12T07:01:28;43.05;;;22.55;;
57635;SDS011;43465;50.728;4.160;2023-03-12T07:03:54;44.67;;;21.85;;
57635;SDS011;43465;50.728;4.160;2023-03-12T07:06:20;42.45;;;20.75;;
57635;SDS011;43465;50.728;4.160;2023-03-12T07:08:47;52.10;;;21.98;;
57635;SDS011;43465;50.728;4.160;2023-03-12T07:11:13;42.22;;;20.98;;
57635;SDS011;43465;50.728;4.160;2023-03-12T07:13:39;45.85;;;20.88;;
57635;SDS011;43465;50.728;4.160;2023-03-12T07:16:05;45.13;;;21.20;;
57635;SDS011;43465;50.728;4.160;2023-03-12T07:18:31;45.58;;;20.85;;
57635;SDS011;43465;50.728;4.160;2023-03-12T07:20:57;39.53;;;20.23;;
57635;SDS011;43465;50.728;4.160;2023-03-12T07:23:23;56.63;;;20.45;;
57635;SDS011;43465;50.728;4.160;2023-03-12T07:25:49;48.10;;;20.58;;
57635;SDS011;43465;50.728;4.160;2023-03-12T07:28:15;52.60;;;20.20;;
57635;SDS011;43465;50.728;4.160;2023-03-12T07:30:41;57.45;;;21.38;;
57635;SDS011;43465;50.728;4.160;2023-03-12T07:33:11;59.55;;;21.90;;
57635;SDS011;43465;50.728;4.160;2023-03-12T07:35:37;66.07;;;21.35;;
57635;SDS011;43465;50.728;4.160;2023-03-12T07:38:03;68.00;;;20.75;;
57635;SDS011;43465;50.728;4.160;2023-03-12T07:40:29;75.72;;;21.38;;
57635;SDS011;43465;50.728;4.160;2023-03-12T07:42:56;69.10;;;21.13;;
57635;SDS011;43465;50.728;4.160;2023-03-12T07:45:22;75.75;;;21.95;;
57635;SDS011;43465;50.728;4.160;2023-03-12T07:47:48;77.35;;;22.17;;
57635;SDS011;43465;50.728;4.160;2023-03-12T07:50:15;81.13;;;21.48;;
57635;SDS011;43465;50.728;4.160;2023-03-12T07:52:42;77.85;;;20.48;;
57635;SDS011;43465;50.728;4.160;2023-03-12T07:55:09;69.78;;;20.25;;
57635;SDS011;43465;50.728;4.160;2023-03-12T07:57:35;77.53;;;20.20;;
57635;SDS011;43465;50.728;4.160;2023-03-12T08:00:01;59.85;;;19.90;;
57635;SDS011;43465;50.728;4.160;2023-03-12T08:02:31;78.32;;;21.80;;
57635;SDS011;43465;50.728;4.160;2023-03-12T08:04:57;90.32;;;22.85;;
57635;SDS011;43465;50.728;4.160;2023-03-12T08:07:23;83.07;;;22.70;;
57635;SDS011;43465;50.728;4.160;2023-03-12T08:09:48;77.15;;;22.77;;
57635;SDS011;43465;50.728;4.160;2023-03-12T08:12:14;84.05;;;21.80;;
57635;SDS011;43465;50.728;4.160;2023-03-12T08:14:39;75.40;;;22.48;;
57635;SDS011;43465;50.728;4.160;2023-03-12T08:17:06;86.32;;;23.45;;
57635;SDS011;43465;50.728;4.160;2023-03-12T08:19:31;83.95;;;22.67;;
57635;SDS011;43465;50.728;4.160;2023-03-12T08:21:57;92.70;;;23.42;;
57635;SDS011;43465;50.728;4.160;2023-03-12T08:24:23;87.70;;;22.13;;
57635;SDS011;43465;50.728;4.160;2023-03-12T08:26:49;85.60;;;22.05;;
57635;SDS011;43465;50.728;4.160;2023-03-12T08:29:15;72.68;;;21.75;;
57635;SDS011;43465;50.728;4.160;2023-03-12T08:31:41;79.78;;;21.20;;
57635;SDS011;43465;50.728;4.160;2023-03-12T08:34:07;101.93;;;22.80;;
57635;SDS011;43465;50.728;4.160;2023-03-12T08:36:32;81.57;;;20.92;;
57635;SDS011;43465;50.728;4.160;2023-03-12T08:38:59;85.78;;;20.98;;
57635;SDS011;43465;50.728;4.160;2023-03-12T08:41:25;90.25;;;21.50;;
57635;SDS011;43465;50.728;4.160;2023-03-12T08:43:51;83.93;;;20.75;;
57635;SDS011;43465;50.728;4.160;2023-03-12T08:46:16;79.22;;;20.08;;
57635;SDS011;43465;50.728;4.160;2023-03-12T08:48:42;82.28;;;20.00;;
57635;SDS011;43465;50.728;4.160;2023-03-12T08:51:08;80.00;;;20.10;;
57635;SDS011;43465;50.728;4.160;2023-03-12T08:53:34;80.65;;;20.55;;
57635;SDS011;43465;50.728;4.160;2023-03-12T08:56:00;83.57;;;19.98;;
57635;SDS011;43465;50.728;4.160;2023-03-12T08:58:27;68.25;;;19.33;;
57635;SDS011;43465;50.728;4.160;2023-03-12T09:00:53;79.72;;;16.52;;
57635;SDS011;43465;50.728;4.160;2023-03-12T09:03:20;69.43;;;17.65;;
57635;SDS011;43465;50.728;4.160;2023-03-12T09:05:46;76.97;;;19.92;;
57635;SDS011;43465;50.728;4.160;2023-03-12T09:08:12;73.88;;;17.42;;
57635;SDS011;43465;50.728;4.160;2023-03-12T09:10:39;73.70;;;16.00;;
57635;SDS011;43465;50.728;4.160;2023-03-12T09:13:05;66.45;;;16.80;;
57635;SDS011;43465;50.728;4.160;2023-03-12T09:15:32;67.53;;;16.40;;
57635;SDS011;43465;50.728;4.160;2023-03-12T09:17:57;65.25;;;14.30;;
57635;SDS011;43465;50.728;4.160;2023-03-12T09:20:23;62.42;;;13.50;;
57635;SDS011;43465;50.728;4.160;2023-03-12T09:22:50;60.30;;;13.57;;
57635;SDS011;43465;50.728;4.160;2023-03-12T09:25:15;55.72;;;13.43;;
57635;SDS011;43465;50.728;4.160;2023-03-12T09:27:45;65.00;;;13.57;;
57635;SDS011;43465;50.728;4.160;2023-03-12T09:30:12;62.42;;;13.82;;
57635;SDS011;43465;50.728;4.160;2023-03-12T09:32:40;49.95;;;12.30;;
57635;SDS011;43465;50.728;4.160;2023-03-12T09:35:06;51.47;;;12.45;;
57635;SDS011;43465;50.728;4.160;2023-03-12T09:37:32;60.20;;;12.07;;
57635;SDS011;43465;50.728;4.160;2023-03-12T09:39:58;62.45;;;12.70;;
57635;SDS011;43465;50.728;4.160;2023-03-12T09:44:56;58.80;;;13.20;;
57635;SDS011;43465;50.728;4.160;2023-03-12T09:47:28;50.80;;;11.45;;
57635;SDS011;43465;50.728;4.160;2023-03-12T09:49:57;51.00;;;11.70;;
57635;SDS011;43465;50.728;4.160;2023-03-12T09:52:39;49.65;;;11.20;;
57635;SDS011;43465;50.728;4.160;2023-03-12T09:57:41;51.85;;;11.60;;
57635;SDS011;43465;50.728;4.160;2023-03-12T10:00:12;47.08;;;10.55;;
57635;SDS011;43465;50.728;4.160;2023-03-12T10:05:23;43.15;;;9.32;;
57635;SDS011;43465;50.728;4.160;2023-03-12T10:07:59;42.85;;;9.88;;
57635;SDS011;43465;50.728;4.160;2023-03-12T10:31:00;47.17;;;10.20;;
57635;SDS011;43465;50.728;4.160;2023-03-12T10:33:43;46.53;;;9.55;;
57635;SDS011;43465;50.728;4.160;2023-03-12T10:36:23;43.03;;;9.95;;
57635;SDS011;43465;50.728;4.160;2023-03-12T10:38:58;50.58;;;10.77;;
57635;SDS011;43465;50.728;4.160;2023-03-12T10:41:27;44.33;;;9.23;;
57635;SDS011;43465;50.728;4.160;2023-03-12T10:43:54;43.88;;;9.63;;
57635;SDS011;43465;50.728;4.160;2023-03-12T10:54:36;48.03;;;9.80;;
57635;SDS011;43465;50.728;4.160;2023-03-12T10:57:04;45.75;;;9.25;;
57635;SDS011;43465;50.728;4.160;2023-03-12T10:59:34;50.35;;;9.50;;
57635;SDS011;43465;50.728;4.160;2023-03-12T11:02:02;49.45;;;9.40;;
57635;SDS011;43465;50.728;4.160;2023-03-12T11:04:51;42.65;;;9.00;;
57635;SDS011;43465;50.728;4.160;2023-03-12T11:07:24;43.35;;;9.07;;
57635;SDS011;43465;50.728;4.160;2023-03-12T11:12:32;48.78;;;9.00;;
57635;SDS011;43465;50.728;4.160;2023-03-12T11:15:15;49.72;;;9.43;;
57635;SDS011;43465;50.728;4.160;2023-03-12T11:18:16;51.53;;;9.60;;
57635;SDS011;43465;50.728;4.160;2023-03-12T11:20:52;50.95;;;9.23;;
57635;SDS011;43465;50.728;4.160;2023-03-12T11:23:42;51.88;;;9.98;;
57635;SDS011;43465;50.728;4.160;2023-03-12T11:26:19;54.67;;;9.77;;
57635;SDS011;43465;50.728;4.160;2023-03-12T11:28:47;55.03;;;9.27;;
57635;SDS011;43465;50.728;4.160;2023-03-12T11:31:23;54.85;;;9.73;;
57635;SDS011;43465;50.728;4.160;2023-03-12T11:33:53;51.30;;;10.25;;
57635;SDS011;43465;50.728;4.160;2023-03-12T11:36:38;56.53;;;8.85;;
57635;SDS011;43465;50.728;4.160;2023-03-12T11:39:17;51.50;;;10.07;;
57635;SDS011;43465;50.728;4.160;2023-03-12T11:50:44;53.53;;;8.85;;
57635;SDS011;43465;50.728;4.160;2023-03-12T11:58:50;41.92;;;8.23;;
57635;SDS011;43465;50.728;4.160;2023-03-12T12:17:35;40.20;;;7.07;;
57635;SDS011;43465;50.728;4.160;2023-03-12T12:28:52;41.95;;;7.22;;
57635;SDS011;43465;50.728;4.160;2023-03-12T12:34:26;42.13;;;6.88;;
57635;SDS011;43465;50.728;4.160;2023-03-12T12:38:01;45.03;;;7.85;;
57635;SDS011;43465;50.728;4.160;2023-03-12T12:40:15;41.55;;;6.85;;
57635;SDS011;43465;50.728;4.160;2023-03-12T12:42:48;37.80;;;6.00;;
57635;SDS011;43465;50.728;4.160;2023-03-12T12:45:30;31.27;;;6.00;;
57635;SDS011;43465;50.728;4.160;2023-03-12T12:50:31;43.22;;;7.30;;
57635;SDS011;43465;50.728;4.160;2023-03-12T12:55:44;37.17;;;6.70;;
57635;SDS011;43465;50.728;4.160;2023-03-12T13:01:09;40.00;;;7.15;;
57635;SDS011;43465;50.728;4.160;2023-03-12T13:03:36;33.75;;;6.15;;
57635;SDS011;43465;50.728;4.160;2023-03-12T13:06:03;33.97;;;6.30;;
57635;SDS011;43465;50.728;4.160;2023-03-12T13:08:34;35.50;;;7.20;;
57635;SDS011;43465;50.728;4.160;2023-03-12T13:11:25;35.38;;;6.53;;
57635;SDS011;43465;50.728;4.160;2023-03-12T13:19:06;33.00;;;6.15;;
57635;SDS011;43465;50.728;4.160;2023-03-12T13:24:32;38.83;;;6.53;;
57635;SDS011;43465;50.728;4.160;2023-03-12T13:29:48;39.67;;;6.70;;
57635;SDS011;43465;50.728;4.160;2023-03-12T13:45:32;35.28;;;6.90;;
57635;SDS011;43465;50.728;4.160;2023-03-12T13:48:04;30.52;;;5.97;;
57635;SDS011;43465;50.728;4.160;2023-03-12T13:50:40;32.60;;;5.55;;
57635;SDS011;43465;50.728;4.160;2023-03-12T13:53:18;30.50;;;5.75;;
57635;SDS011;43465;50.728;4.160;2023-03-12T13:55:58;33.30;;;5.90;;
57635;SDS011;43465;50.728;4.160;2023-03-12T13:58:29;35.03;;;6.07;;
57635;SDS011;43465;50.728;4.160;2023-03-12T14:00:56;34.40;;;5.85;;
57635;SDS011;43465;50.728;4.160;2023-03-12T14:03:37;30.17;;;5.50;;
57635;SDS011;43465;50.728;4.160;2023-03-12T14:06:09;32.22;;;6.10;;
57635;SDS011;43465;50.728;4.160;2023-03-12T14:16:55;28.48;;;5.63;;
57635;SDS011;43465;50.728;4.160;2023-03-12T14:19:27;26.23;;;5.40;;
57635;SDS011;43465;50.728;4.160;2023-03-12T14:21:55;23.25;;;4.97;;
57635;SDS011;43465;50.728;4.160;2023-03-12T14:24:29;30.23;;;5.22;;
57635;SDS011;43465;50.728;4.160;2023-03-12T14:27:01;27.98;;;5.10;;
57635;SDS011;43465;50.728;4.160;2023-03-12T14:29:32;28.48;;;4.65;;
57635;SDS011;43465;50.728;4.160;2023-03-12T14:32:01;25.50;;;4.97;;
57635;SDS011;43465;50.728;4.160;2023-03-12T14:34:31;33.25;;;5.10;;
57635;SDS011;43465;50.728;4.160;2023-03-12T14:37:04;30.42;;;5.53;;
57635;SDS011;43465;50.728;4.160;2023-03-12T14:39:49;27.98;;;6.05;;
57635;SDS011;43465;50.728;4.160;2023-03-12T14:42:37;20.92;;;4.82;;
57635;SDS011;43465;50.728;4.160;2023-03-12T14:47:40;24.35;;;4.93;;
57635;SDS011;43465;50.728;4.160;2023-03-12T14:50:17;27.60;;;5.78;;
57635;SDS011;43465;50.728;4.160;2023-03-12T14:52:44;29.52;;;4.72;;
57635;SDS011;43465;50.728;4.160;2023-03-12T14:55:14;26.02;;;5.45;;
57635;SDS011;43465;50.728;4.160;2023-03-12T14:57:43;30.70;;;5.50;;
57635;SDS011;43465;50.728;4.160;2023-03-12T15:00:13;24.85;;;5.05;;
57635;SDS011;43465;50.728;4.160;2023-03-12T15:02:47;26.17;;;5.25;;
57635;SDS011;43465;50.728;4.160;2023-03-12T15:05:16;29.42;;;5.40;;
57635;SDS011;43465;50.728;4.160;2023-03-12T15:07:43;26.10;;;5.13;;
57635;SDS011;43465;50.728;4.160;2023-03-12T15:10:19;34.50;;;5.28;;
57635;SDS011;43465;50.728;4.160;2023-03-12T15:12:47;22.80;;;4.55;;
57635;SDS011;43465;50.728;4.160;2023-03-12T15:15:22;24.80;;;5.03;;
57635;SDS011;43465;50.728;4.160;2023-03-12T15:18:05;25.83;;;4.85;;
57635;SDS011;43465;50.728;4.160;2023-03-12T15:20:41;24.80;;;4.65;;
57635;SDS011;43465;50.728;4.160;2023-03-12T15:23:07;28.13;;;5.05;;
57635;SDS011;43465;50.728;4.160;2023-03-12T15:25:36;28.00;;;5.55;;
57635;SDS011;43465;50.728;4.160;2023-03-12T15:30:32;22.88;;;5.28;;
57635;SDS011;43465;50.728;4.160;2023-03-12T15:33:09;26.92;;;5.43;;
57635;SDS011;43465;50.728;4.160;2023-03-12T15:36:21;28.48;;;5.53;;
57635;SDS011;43465;50.728;4.160;2023-03-12T15:39:33;28.52;;;5.05;;
57635;SDS011;43465;50.728;4.160;2023-03-12T15:42:09;27.88;;;5.07;;
57635;SDS011;43465;50.728;4.160;2023-03-12T15:44:46;26.70;;;5.63;;
57635;SDS011;43465;50.728;4.160;2023-03-12T15:47:18;31.83;;;5.57;;
57635;SDS011;43465;50.728;4.160;2023-03-12T15:49:50;27.10;;;5.03;;
57635;SDS011;43465;50.728;4.160;2023-03-12T15:57:34;27.85;;;5.13;;
57635;SDS011;43465;50.728;4.160;2023-03-12T16:02:51;27.67;;;4.75;;
57635;SDS011;43465;50.728;4.160;2023-03-12T16:05:20;26.25;;;5.00;;
57635;SDS011;43465;50.728;4.160;2023-03-12T16:08:17;31.63;;;5.35;;
57635;SDS011;43465;50.728;4.160;2023-03-12T16:10:46;32.70;;;6.13;;
57635;SDS011;43465;50.728;4.160;2023-03-12T16:13:14;26.08;;;5.22;;
57635;SDS011;43465;50.728;4.160;2023-03-12T16:15:41;31.88;;;4.82;;
57635;SDS011;43465;50.728;4.160;2023-03-12T16:18:15;33.65;;;7.15;;
57635;SDS011;43465;50.728;4.160;2023-03-12T16:20:42;25.83;;;5.05;;
57635;SDS011;43465;50.728;4.160;2023-03-12T16:23:08;29.10;;;5.90;;
57635;SDS011;43465;50.728;4.160;2023-03-12T16:25:33;35.78;;;5.85;;
57635;SDS011;43465;50.728;4.160;2023-03-12T16:28:00;29.77;;;5.85;;
57635;SDS011;43465;50.728;4.160;2023-03-12T16:30:32;37.35;;;7.00;;
57635;SDS011;43465;50.728;4.160;2023-03-12T16:33:00;30.08;;;5.70;;
57635;SDS011;43465;50.728;4.160;2023-03-12T16:35:27;37.28;;;5.63;;
57635;SDS011;43465;50.728;4.160;2023-03-12T16:37:55;20.33;;;4.63;;
57635;SDS011;43465;50.728;4.160;2023-03-12T16:40:21;35.65;;;6.45;;
57635;SDS011;43465;50.728;4.160;2023-03-12T16:42:48;27.40;;;5.40;;
57635;SDS011;43465;50.728;4.160;2023-03-12T16:45:18;29.15;;;5.22;;
57635;SDS011;43465;50.728;4.160;2023-03-12T16:47:45;24.92;;;5.03;;
57635;SDS011;43465;50.728;4.160;2023-03-12T16:50:14;33.55;;;5.80;;
57635;SDS011;43465;50.728;4.160;2023-03-12T16:52:40;29.83;;;5.43;;
57635;SDS011;43465;50.728;4.160;2023-03-12T16:55:07;29.73;;;6.13;;
57635;SDS011;43465;50.728;4.160;2023-03-12T16:57:36;30.00;;;5.35;;
57635;SDS011;43465;50.728;4.160;2023-03-12T17:00:05;30.73;;;6.07;;
57635;SDS011;43465;50.728;4.160;2023-03-12T17:02:32;37.42;;;5.60;;
57635;SDS011;43465;50.728;4.160;2023-03-12T17:04:59;31.27;;;4.78;;
57635;SDS011;43465;50.728;4.160;2023-03-12T17:07:25;36.50;;;5.53;;
57635;SDS011;43465;50.728;4.160;2023-03-12T17:09:51;30.45;;;5.43;;